createdAt,value
2023-05-10T00:01:14.436Z,43.53
2023-05-10T00:06:16.682Z,44.25
2023-05-10T00:11:19.619Z,44.17
2023-05-10T00:16:22.966Z,44.42
2023-05-10T00:21:24.906Z,44.21
2023-05-10T00:26:27.221Z,44.83
2023-05-10T00:31:29.241Z,45.31
2023-05-10T00:36:32.487Z,45.21
2023-05-10T00:41:34.628Z,45.30
2023-05-10T00:46:37.454Z,46.27
2023-05-10T00:51:39.518Z,46.11
2023-05-10T00:56:42.490Z,46.36
2023-05-10T01:01:48.124Z,47.37
2023-05-10T01:06:50.214Z,46.93
2023-05-10T01:11:52.278Z,47.39
2023-05-10T01:16:55.242Z,47.26
2023-05-10T01:22:38.822Z,47.87
2023-05-10T01:28:29.810Z,47.70
2023-05-10T01:33:40.520Z,48.61
2023-05-10T01:38:57.397Z,49.04
2023-05-10T01:44:19.113Z,48.60
2023-05-10T01:49:30.376Z,48.98
2023-05-10T01:54:35.205Z,47.95
2023-05-10T01:59:42.963Z,48.65
2023-05-10T02:04:46.437Z,48.73
2023-05-10T02:09:49.231Z,49.68
2023-05-10T02:14:54.186Z,49.13
2023-05-10T02:19:58.792Z,49.32
2023-05-10T02:25:02.290Z,50.49
2023-05-10T02:30:06.409Z,50.48
2023-05-10T02:35:09.639Z,50.39
2023-05-10T02:40:12.930Z,50.51
2023-05-10T02:45:18.806Z,50.32
2023-05-10T02:50:21.538Z,51.76
2023-05-10T02:55:28.336Z,51.25
2023-05-10T03:00:30.671Z,50.79
2023-05-10T03:05:32.476Z,51.25
2023-05-10T03:10:38.960Z,52.19
2023-05-10T03:16:04.011Z,51.80
2023-05-10T03:21:10.180Z,52.18
2023-05-10T03:26:21.769Z,53.10
2023-05-10T03:31:23.821Z,52.86
2023-05-10T03:36:25.803Z,53.04
2023-05-10T03:41:27.836Z,51.89
2023-05-10T03:46:29.801Z,53.38
2023-05-10T03:51:32.377Z,53.02
2023-05-10T03:56:34.388Z,52.70
2023-05-10T04:01:36.546Z,52.80
2023-05-10T04:06:39.385Z,53.35
2023-05-10T04:11:41.476Z,53.42
2023-05-10T04:16:43.512Z,53.37
2023-05-10T04:21:45.522Z,53.80
2023-05-10T04:26:47.504Z,53.46
2023-05-10T04:31:50.146Z,53.54
2023-05-10T04:36:52.232Z,53.57
2023-05-10T04:41:54.209Z,52.81
2023-05-10T04:46:56.208Z,52.62
2023-05-10T04:51:58.440Z,50.65
2023-05-10T04:57:00.678Z,49.54
2023-05-10T05:02:02.931Z,49.63
2023-05-10T05:07:05.085Z,46.72
2023-05-10T05:12:07.160Z,46.68
2023-05-10T05:17:09.723Z,46.39
2023-05-10T05:22:11.883Z,44.94
2023-05-10T05:27:13.900Z,45.24
2023-05-10T05:32:15.868Z,44.27
2023-05-10T05:37:20.439Z,43.54
2023-05-10T05:42:22.572Z,41.76
2023-05-10T05:47:25.081Z,41.95
2023-05-10T05:52:27.449Z,38.11
2023-05-10T05:57:29.544Z,39.23
2023-05-10T06:02:31.744Z,36.30
2023-05-10T06:07:33.861Z,37.15
2023-05-10T06:12:36.282Z,38.03
2023-05-10T06:17:38.440Z,36.95
2023-05-10T06:22:40.574Z,34.89
2023-05-10T06:27:42.771Z,36.89
2023-05-10T06:32:46.427Z,34.83
2023-05-10T06:37:48.743Z,35.34
2023-05-10T06:42:50.861Z,34.92
2023-05-10T06:47:52.888Z,33.04
2023-05-10T06:52:55.838Z,34.48
2023-05-10T06:57:58.181Z,32.56
2023-05-10T07:03:00.371Z,33.20
2023-05-10T07:08:02.906Z,32.51
2023-05-10T07:13:06.012Z,31.87
2023-05-10T07:18:08.617Z,31.88
2023-05-10T07:23:11.019Z,30.36
2023-05-10T07:28:13.522Z,30.07
2023-05-10T07:33:17.146Z,30.35
2023-05-10T07:38:19.268Z,30.01
2023-05-10T07:43:21.491Z,29.45
2023-05-10T07:48:23.705Z,29.24
2023-05-10T07:53:28.402Z,27.89
2023-05-10T07:58:30.538Z,28.31
2023-05-10T08:03:32.825Z,27.87
2023-05-10T08:08:35.133Z,27.49
2023-05-10T08:13:37.252Z,28.17
2023-05-10T08:18:40.821Z,27.67
2023-05-10T08:23:45.286Z,26.67
2023-05-10T08:28:47.391Z,26.41
2023-05-10T08:33:49.652Z,27.77
2023-05-10T08:38:53.429Z,26.68
2023-05-10T08:43:56.216Z,27.69
2023-05-10T08:49:03.394Z,27.00
2023-05-10T08:54:06.908Z,26.41
2023-05-10T08:59:09.275Z,27.20
2023-05-10T09:04:11.863Z,26.40
2023-05-10T09:09:14.147Z,25.60
2023-05-10T09:14:17.240Z,26.93
2023-05-10T09:19:19.396Z,26.17
2023-05-10T09:24:27.189Z,26.52
2023-05-10T09:29:44.299Z,27.26
2023-05-10T09:34:47.335Z,26.42
2023-05-10T09:39:55.769Z,26.53
2023-05-10T09:45:08.335Z,26.61
2023-05-10T09:50:11.490Z,25.66
2023-05-10T09:55:13.684Z,26.53
2023-05-10T10:00:20.737Z,26.14
2023-05-10T10:05:29.106Z,26.03
2023-05-10T10:10:32.903Z,25.35
2023-05-10T10:15:38.592Z,25.64
2023-05-10T10:20:41.006Z,25.97
2023-05-10T10:25:45.695Z,25.72
2023-05-10T10:30:52.334Z,24.97
2023-05-10T10:36:01.809Z,24.84
2023-05-10T10:41:10.906Z,26.10
2023-05-10T10:46:19.919Z,25.63
2023-05-10T10:51:22.693Z,25.31
2023-05-10T10:56:25.594Z,24.32
2023-05-10T11:01:34.924Z,24.43
2023-05-10T11:06:37.596Z,25.61
2023-05-10T11:11:59.844Z,25.06
2023-05-10T11:17:03.461Z,23.76
2023-05-10T11:22:05.831Z,23.78
2023-05-10T11:27:08.200Z,24.68
2023-05-10T11:32:10.734Z,25.25
2023-05-10T11:37:13.077Z,25.03
2023-05-10T11:42:16.065Z,25.02
2023-05-10T11:47:18.589Z,24.99
2023-05-10T11:52:21.786Z,24.96
2023-05-10T11:57:29.865Z,24.86
2023-05-10T12:02:32.311Z,24.45
2023-05-10T12:07:34.501Z,25.17
2023-05-10T12:12:43.293Z,25.02
2023-05-10T12:17:46.435Z,24.74
2023-05-10T12:23:00.589Z,24.16
2023-05-10T12:33:28.174Z,24.71
2023-05-10T12:38:39.117Z,24.61
2023-05-10T12:43:42.214Z,24.52
2023-05-10T12:48:45.826Z,24.09
2023-05-10T12:53:49.740Z,23.83
2023-05-10T12:58:52.574Z,23.42
2023-05-10T13:03:54.904Z,23.60
2023-05-10T13:08:58.944Z,23.95
2023-05-10T13:14:01.569Z,22.93
2023-05-10T13:19:04.576Z,23.19
2023-05-10T13:24:07.134Z,22.49
2023-05-10T13:29:09.530Z,22.41
2023-05-10T13:34:11.915Z,22.60
2023-05-10T13:39:14.071Z,22.51
2023-05-10T13:44:16.809Z,21.99
2023-05-10T13:49:19.005Z,23.14
2023-05-10T13:54:21.294Z,22.54
2023-05-10T13:59:23.826Z,22.20
2023-05-10T14:04:26.941Z,22.46
2023-05-10T14:09:29.277Z,22.97
2023-05-10T14:14:31.609Z,22.80
2023-05-10T14:19:34.928Z,22.71
2023-05-10T14:24:37.173Z,22.41
2023-05-10T14:29:39.481Z,23.24
2023-05-10T14:34:42.280Z,23.06
2023-05-10T14:39:45.065Z,23.39
2023-05-10T14:44:47.213Z,23.21
2023-05-10T14:49:49.483Z,23.67
2023-05-10T14:54:51.789Z,23.89
2023-05-10T14:59:54.003Z,24.54
2023-05-10T15:04:56.691Z,24.82
2023-05-10T15:09:59.338Z,24.79
2023-05-10T15:15:01.792Z,24.65
2023-05-10T15:20:07.611Z,24.47
2023-05-10T15:25:11.117Z,25.26
2023-05-10T15:30:13.919Z,24.56
2023-05-10T15:35:16.679Z,25.09
2023-05-10T15:40:19.161Z,24.85
2023-05-10T15:45:21.662Z,24.78
2023-05-10T15:50:23.745Z,25.19
2023-05-10T15:55:26.777Z,25.70
2023-05-10T16:00:29.267Z,26.06
2023-05-10T16:05:33.846Z,25.67
2023-05-10T16:10:36.030Z,25.65
2023-05-10T16:15:38.363Z,25.61
2023-05-10T16:20:40.571Z,25.86
2023-05-10T16:25:43.087Z,25.69
2023-05-10T16:30:45.390Z,25.63
2023-05-10T16:35:47.817Z,26.14
2023-05-10T16:40:50.052Z,26.15
2023-05-10T16:45:52.247Z,26.48
2023-05-10T16:50:54.462Z,26.58
2023-05-10T16:55:56.704Z,27.03
2023-05-10T17:00:58.764Z,27.31
2023-05-10T17:06:01.058Z,27.59
2023-05-10T17:11:04.252Z,27.69
2023-05-10T17:16:07.420Z,27.97
2023-05-10T17:21:10.048Z,28.39
2023-05-10T17:26:12.126Z,29.06
2023-05-10T17:31:14.341Z,29.63
2023-05-10T17:36:16.775Z,29.55
2023-05-10T17:41:19.316Z,30.03
2023-05-10T17:46:21.905Z,29.63
2023-05-10T17:51:24.808Z,30.63
2023-05-10T17:56:31.310Z,30.30
2023-05-10T18:01:35.243Z,30.45
2023-05-10T18:06:38.779Z,30.55
2023-05-10T18:11:41.021Z,30.90
2023-05-10T18:16:43.611Z,30.91
2023-05-10T18:21:46.328Z,31.24
2023-05-10T18:26:55.524Z,32.08
2023-05-10T18:32:18.233Z,32.17
2023-05-10T18:37:22.213Z,31.15
2023-05-10T18:42:28.619Z,33.16
2023-05-10T18:47:31.424Z,33.24
2023-05-10T18:52:35.300Z,33.37
2023-05-10T18:57:42.279Z,32.88
2023-05-10T19:02:45.284Z,34.08
2023-05-10T19:07:55.048Z,33.07
2023-05-10T19:12:57.987Z,33.67
2023-05-10T19:18:03.061Z,33.87
2023-05-10T19:23:17.129Z,33.71
2023-05-10T19:28:20.830Z,33.87
2023-05-10T19:45:23.700Z,34.23
2023-05-10T19:50:29.296Z,35.48
2023-05-10T19:55:32.743Z,35.62
2023-05-10T20:00:35.289Z,35.64
2023-05-10T20:05:51.051Z,36.00
2023-05-10T20:10:55.271Z,35.51
2023-05-10T20:16:27.449Z,35.52
2023-05-10T20:22:02.885Z,35.84
2023-05-10T20:27:06.730Z,35.36
2023-05-10T20:32:13.794Z,35.18
2023-05-10T20:37:26.874Z,35.92
2023-05-10T20:42:31.912Z,36.18
2023-05-10T20:53:41.186Z,36.11
2023-05-10T20:58:43.406Z,36.28
2023-05-10T21:03:45.602Z,36.16
2023-05-10T21:08:48.614Z,36.72
2023-05-10T21:13:51.724Z,36.96
2023-05-10T21:19:07.376Z,36.96
2023-05-10T21:24:11.324Z,37.13
2023-05-10T21:29:13.395Z,37.16
2023-05-10T21:34:18.355Z,37.89
2023-05-10T21:39:21.276Z,37.02
2023-05-10T21:44:26.038Z,37.37
2023-05-10T21:49:30.592Z,37.98
2023-05-10T21:54:33.435Z,37.72
2023-05-10T21:59:37.302Z,38.01
2023-05-10T22:04:39.336Z,38.24
2023-05-10T22:09:43.256Z,38.31
2023-05-10T22:14:45.555Z,38.20
2023-05-10T22:19:47.608Z,39.12
2023-05-10T22:24:49.726Z,39.73
2023-05-10T22:29:52.021Z,38.20
2023-05-10T22:34:54.121Z,39.53
2023-05-10T22:39:56.062Z,38.80
2023-05-10T22:44:58.975Z,38.88
2023-05-10T22:50:03.745Z,39.53
2023-05-10T22:55:07.424Z,39.51
2023-05-10T23:00:09.825Z,39.41
2023-05-10T23:05:11.948Z,39.70
2023-05-10T23:10:14.171Z,40.61
2023-05-10T23:15:16.373Z,40.57
2023-05-10T23:20:18.771Z,41.18
2023-05-10T23:25:21.161Z,41.10
2023-05-10T23:30:23.302Z,41.16
2023-05-10T23:35:25.368Z,42.21
2023-05-10T23:40:27.393Z,41.45
2023-05-10T23:45:29.287Z,42.72
2023-05-10T23:50:31.627Z,42.92
2023-05-10T23:55:33.660Z,43.41
